| time (UTC) | temp C | wind direction | speed KPH | gust KPH | rain 1hr cm | rain 24hr cm | rain mn cm | humidity % | barometer mb |
| 20260906231032 | 22 | 191 | 17.7 | 24.1 | 0.00 | 0.00 | 0.00 | 29 | 1020.7 |
| 20260906230101 | 22 | 192 | 16.1 | 17.7 | 0.00 | 0.00 | 0.00 | 28 | 1020.9 |
| 20260906225023 | 22 | 188 | 17.7 | 20.9 | 0.00 | 0.00 | 0.00 | 28 | 1020.7 |
| 20260906224028 | 23 | 194 | 16.1 | 17.7 | 0.00 | 0.00 | 0.00 | 26 | 1020.7 |
| 20260906223015 | 23 | 206 | 16.1 | 24.1 | 0.00 | 0.00 | 0.00 | 25 | 1020.7 |
| 20260906222020 | 23 | 208 | 19.3 | 25.7 | 0.00 | 0.00 | 0.00 | 23 | 1020.7 |
| 20260906221025 | 24 | 197 | 19.3 | 24.1 | 0.00 | 0.00 | 0.00 | 23 | 1020.5 |
| 20260906220030 | 24 | 205 | 20.9 | 27.4 | 0.00 | 0.00 | 0.00 | 21 | 1020.5 |
| 20260906215016 | 24 | 190 | 17.7 | 20.9 | 0.00 | 0.00 | 0.00 | 20 | 1020.5 |
| 20260906214021 | 24 | 194 | 19.3 | 29.0 | 0.00 | 0.00 | 0.00 | 20 | 1020.5 |
| 20260906213026 | 25 | 210 | 19.3 | 25.7 | 0.00 | 0.00 | 0.00 | 19 | 1020.5 |
| 20260906212024 | 25 | 210 | 20.9 | 27.4 | 0.00 | 0.00 | 0.00 | 21 | 1020.6 |
| 20260906211017 | 25 | 192 | 16.1 | 24.1 | 0.00 | 0.00 | 0.00 | 21 | 1020.9 |
| 20260906210023 | 26 | 181 | 16.1 | 25.7 | 0.00 | 0.00 | 0.00 | 21 | 1020.9 |
| 20260906205021 | 26 | 189 | 14.5 | 20.9 | 0.00 | 0.00 | 0.00 | 22 | 1020.9 |
| 20260906204040 | 27 | 195 | 20.9 | 27.4 | 0.00 | 0.00 | 0.00 | 22 | 1020.9 |
| 20260906203039 | 27 | 213 | 20.9 | 32.2 | 0.00 | 0.00 | 0.00 | 22 | 1020.9 |
| 20260906202018 | 26 | 189 | 17.7 | 24.1 | 0.00 | 0.00 | 0.00 | 23 | 1021.0 |
| 20260906201016 | 26 | 197 | 12.9 | 27.4 | 0.00 | 0.00 | 0.00 | 23 | 1021.1 |
| 20260906200016 | 26 | 222 | 14.5 | 16.1 | 0.00 | 0.00 | 0.00 | 23 | 1021.2 |
| 20260906195032 | 26 | 189 | 12.9 | 20.9 | 0.00 | 0.00 | 0.00 | 24 | 1021.4 |
| 20260906194019 | 25 | 208 | 14.5 | 20.9 | 0.00 | 0.00 | 0.00 | 24 | 1021.5 |
| 20260906193025 | 26 | 221 | 19.3 | 22.5 | 0.00 | 0.00 | 0.00 | 23 | 1021.5 |
| 20260906192028 | 26 | 140 | 14.5 | 20.9 | 0.00 | 0.00 | 0.00 | 24 | 1021.5 |
| 20260906191016 | 26 | 171 | 14.5 | 19.3 | 0.00 | 0.00 | 0.00 | 24 | 1021.6 |
| 20260906190020 | 26 | 191 | 11.3 | 12.9 | 0.00 | 0.00 | 0.00 | 24 | 1022.0 |
| 20260906185025 | 25 | 186 | 12.9 | 20.9 | 0.00 | 0.00 | 0.00 | 24 | 1022.2 |
| 20260906184050 | 26 | 214 | 16.1 | 19.3 | 0.00 | 0.00 | 0.00 | 24 | 1022.4 |
| 20260906183021 | 25 | 206 | 14.5 | 22.5 | 0.00 | 0.00 | 0.00 | 25 | 1022.6 |
| 20260906182027 | 25 | 207 | 17.7 | 25.7 | 0.00 | 0.00 | 0.00 | 25 | 1022.7 |
| 20260906181032 | 25 | 185 | 14.5 | 19.3 | 0.00 | 0.00 | 0.00 | 25 | 1022.8 |
| 20260906180018 | 25 | 201 | 14.5 | 19.3 | 0.00 | 0.00 | 0.00 | 27 | 1023.2 |
| 20260906175022 | 24 | 187 | 19.3 | 27.4 | 0.00 | 0.00 | 0.00 | 27 | 1023.2 |
| 20260906174047 | 25 | 207 | 14.5 | 17.7 | 0.00 | 0.00 | 0.00 | 27 | 1023.6 |
| 20260906173031 | 24 | 212 | 17.7 | 22.5 | 0.00 | 0.00 | 0.00 | 28 | 1023.5 |
| 20260906172039 | 24 | 224 | 19.3 | 25.7 | 0.00 | 0.00 | 0.00 | 28 | 1023.5 |
| 20260906171023 | 23 | 172 | 14.5 | 20.9 | 0.00 | 0.00 | 0.00 | 30 | 1023.6 |
| 20260906170029 | 23 | 155 | 14.5 | 19.3 | 0.00 | 0.00 | 0.00 | 29 | 1023.7 |
| 20260906165033 | 23 | 163 | 14.5 | 24.1 | 0.00 | 0.00 | 0.00 | 30 | 1023.7 |
| 20260906164019 | 23 | 182 | 11.3 | 14.5 | 0.00 | 0.00 | 0.00 | 30 | 1023.8 |
| 20260906163024 | 23 | 182 | 12.9 | 16.1 | 0.00 | 0.00 | 0.00 | 31 | 1023.8 |
| 20260906162051 | 23 | 210 | 9.7 | 16.1 | 0.00 | 0.00 | 0.00 | 30 | 1023.8 |
| 20260906161016 | 23 | 156 | 11.3 | 17.7 | 0.00 | 0.00 | 0.00 | 30 | 1024.0 |
| 20260906160020 | 22 | 172 | 9.7 | 14.5 | 0.00 | 0.00 | 0.00 | 31 | 1024.2 |
| 20260906155025 | 22 | 160 | 9.7 | 12.9 | 0.00 | 0.00 | 0.00 | 30 | 1024.2 |
| 20260906154050 | 22 | 137 | 8.0 | 11.3 | 0.00 | 0.00 | 0.00 | 31 | 1024.3 |
| 20260906153017 | 21 | 71 | 6.4 | 8.0 | 0.00 | 0.00 | 0.00 | 34 | 1024.3 |
| 20260906152022 | 20 | 54 | 3.2 | 6.4 | 0.00 | 0.00 | 0.00 | 37 | 1024.3 |
| 20260906151026 | 18 | 35 | 4.8 | 8.0 | 0.00 | 0.00 | 0.00 | 38 | 1024.4 |
| 20260906150031 | 17 | 45 | 3.2 | 6.4 | 0.00 | 0.00 | 0.00 | 41 | 1024.4 |
| 20260906145019 | 15 | 65 | 4.8 | 6.4 | 0.00 | 0.00 | 0.00 | 44 | 1024.4 |
| 20260906144023 | 13 | 65 | 6.4 | 8.0 | 0.00 | 0.00 | 0.00 | 48 | 1024.4 |
| 20260906143028 | 13 | 59 | 4.8 | 6.4 | 0.00 | 0.00 | 0.00 | 51 | 1024.4 |
| 20260906142033 | 12 | 64 | 6.4 | 6.4 | 0.00 | 0.00 | 0.00 | 53 | 1024.4 |
| 20260906141020 | 11 | 37 | 1.6 | 6.4 | 0.00 | 0.00 | 0.00 | 54 | 1024.3 |
| 20260906140024 | 10 | 0.0 | 0.0 | 0.00 | 0.00 | 0.00 | 59 | 1024.3 | |
| 20260906135029 | 8 | 42 | 3.2 | 8.0 | 0.00 | 0.00 | 0.00 | 64 | 1024.0 |
| 20260906134016 | 6 | 83 | 6.4 | 8.0 | 0.00 | 0.00 | 0.00 | 71 | 1024.0 |
| 20260906133022 | 4 | 338 | 0.0 | 3.2 | 0.00 | 0.00 | 0.00 | 76 | 1024.0 |
| 20260906132046 | 3 | 39 | 1.6 | 3.2 | 0.00 | 0.00 | 0.00 | 81 | 1024.0 |
| 20260906131025 | 2 | 0.0 | 0.0 | 0.00 | 0.00 | 0.00 | 83 | 1024.0 | |
| 20260906130018 | 2 | 0.0 | 0.0 | 0.00 | 0.00 | 0.00 | 81 | 1024.0 | |
| 20260906125103 | 2 | 0.0 | 0.0 | 0.00 | 0.00 | 0.00 | 79 | 1023.8 | |
| 20260906124021 | 3 | 270 | 0.0 | 3.2 | 0.00 | 0.00 | 0.00 | 78 | 1023.8 |
| 20260906123019 | 3 | 0.0 | 0.0 | 0.00 | 0.00 | 0.00 | 77 | 1023.7 | |
| 20260906122018 | 3 | 72 | 3.2 | 4.8 | 0.00 | 0.00 | 0.00 | 78 | 1023.7 |
| 20260906121017 | 3 | 45 | 1.6 | 6.4 | 0.00 | 0.00 | 0.00 | 76 | 1023.8 |
| 20260906120016 | 4 | 229 | 3.2 | 4.8 | 0.00 | 0.00 | 0.00 | 76 | 1023.8 |
| 20260906115033 | 4 | 75 | 4.8 | 6.4 | 0.00 | 0.00 | 0.00 | 77 | 1023.8 |
| 20260906114019 | 4 | 68 | 4.8 | 6.4 | 0.00 | 0.00 | 0.00 | 78 | 1023.8 |
| 20260906113024 | 3 | 62 | 3.2 | 6.4 | 0.00 | 0.00 | 0.00 | 77 | 1023.9 |
| 20260906112030 | 4 | 0.0 | 0.0 | 0.00 | 0.00 | 0.00 | 74 | 1023.9 | |
| 20260906111017 | 5 | 0.0 | 0.0 | 0.00 | 0.00 | 0.00 | 72 | 1023.8 | |
| 20260906110020 | 5 | 58 | 1.6 | 4.8 | 0.00 | 0.00 | 0.00 | 71 | 1023.8 |
| 20260906105025 | 5 | 52 | 3.2 | 4.8 | 0.00 | 0.00 | 0.00 | 71 | 1023.8 |
| 20260906104051 | 5 | 72 | 4.8 | 8.0 | 0.00 | 0.00 | 0.00 | 73 | 1023.8 |
| 20260906103017 | 5 | 97 | 6.4 | 8.0 | 0.00 | 0.00 | 0.00 | 74 | 1023.9 |
| 20260906102021 | 4 | 86 | 4.8 | 6.4 | 0.00 | 0.00 | 0.00 | 75 | 1023.9 |
| 20260906101026 | 4 | 101 | 3.2 | 4.8 | 0.00 | 0.00 | 0.00 | 71 | 1023.8 |
| 20260906100032 | 5 | 228 | 3.2 | 4.8 | 0.00 | 0.00 | 0.00 | 69 | 1023.7 |
| 20260906095019 | 6 | 252 | 3.2 | 4.8 | 0.00 | 0.00 | 0.00 | 66 | 1023.7 |
| 20260906094043 | 6 | 81 | 4.8 | 8.0 | 0.00 | 0.00 | 0.00 | 66 | 1023.6 |
| 20260906093127 | 6 | 69 | 4.8 | 8.0 | 0.00 | 0.00 | 0.00 | 66 | 1023.6 |
| 20260906092032 | 6 | 101 | 6.4 | 9.7 | 0.00 | 0.00 | 0.00 | 68 | 1023.7 |
| 20260906091019 | 6 | 78 | 6.4 | 8.0 | 0.00 | 0.00 | 0.00 | 68 | 1023.7 |
| 20260906090023 | 6 | 73 | 4.8 | 6.4 | 0.00 | 0.00 | 0.00 | 66 | 1023.6 |
| 20260906085028 | 6 | 90 | 4.8 | 6.4 | 0.00 | 0.00 | 0.00 | 65 | 1023.6 |
| 20260906084015 | 7 | 38 | 3.2 | 4.8 | 0.00 | 0.00 | 0.00 | 64 | 1023.6 |
| 20260906083040 | 7 | 81 | 4.8 | 6.4 | 0.00 | 0.00 | 0.00 | 64 | 1023.6 |
| 20260906082024 | 7 | 90 | 6.4 | 8.0 | 0.00 | 0.00 | 0.00 | 64 | 1023.6 |
| 20260906081029 | 7 | 90 | 4.8 | 6.4 | 0.00 | 0.00 | 0.00 | 65 | 1023.6 |
| 20260906080037 | 7 | 97 | 3.2 | 6.4 | 0.00 | 0.00 | 0.00 | 65 | 1023.7 |
| 20260906075021 | 7 | 70 | 4.8 | 6.4 | 0.00 | 0.00 | 0.00 | 64 | 1023.8 |
| 20260906074026 | 7 | 76 | 4.8 | 6.4 | 0.00 | 0.00 | 0.00 | 63 | 1023.7 |
| 20260906073031 | 7 | 91 | 4.8 | 6.4 | 0.00 | 0.00 | 0.00 | 61 | 1023.6 |
| 20260906072017 | 8 | 95 | 6.4 | 8.0 | 0.00 | 0.00 | 0.00 | 61 | 1023.6 |
| 20260906071044 | 8 | 83 | 6.4 | 8.0 | 0.00 | 0.00 | 0.00 | 61 | 1023.6 |
| 20260906070028 | 8 | 108 | 4.8 | 6.4 | 0.00 | 0.00 | 0.00 | 60 | 1023.6 |
| 20260906065032 | 8 | 65 | 6.4 | 8.0 | 0.00 | 0.00 | 0.00 | 59 | 1023.4 |
| 20260906064019 | 8 | 88 | 4.8 | 6.4 | 0.00 | 0.00 | 0.00 | 57 | 1023.4 |
| 20260906063104 | 9 | 86 | 4.8 | 6.4 | 0.00 | 0.00 | 0.00 | 55 | 1023.3 |
| 20260906062029 | 9 | 77 | 6.4 | 6.4 | 0.00 | 0.00 | 0.00 | 53 | 1023.2 |
| 20260906061015 | 10 | 76 | 4.8 | 4.8 | 0.00 | 0.00 | 0.00 | 51 | 1023.2 |
| 20260906060021 | 10 | 64 | 4.8 | 6.4 | 0.00 | 0.00 | 0.00 | 50 | 1023.2 |
| 20260906055025 | 10 | 80 | 4.8 | 6.4 | 0.00 | 0.00 | 0.00 | 50 | 1023.2 |
| 20260906054030 | 10 | 98 | 6.4 | 8.0 | 0.00 | 0.00 | 0.00 | 50 | 1023.4 |
| 20260906053016 | 10 | 110 | 8.0 | 9.7 | 0.00 | 0.00 | 0.00 | 49 | 1023.4 |
| 20260906052041 | 11 | 83 | 6.4 | 8.0 | 0.00 | 0.00 | 0.00 | 45 | 1023.4 |
| 20260906051026 | 11 | 120 | 6.4 | 8.0 | 0.00 | 0.00 | 0.00 | 44 | 1023.4 |
| 20260906050026 | 11 | 95 | 6.4 | 8.0 | 0.00 | 0.00 | 0.00 | 42 | 1023.4 |
| 20260906045038 | 11 | 105 | 4.8 | 6.4 | 0.00 | 0.00 | 0.00 | 40 | 1023.4 |
| 20260906044023 | 11 | 90 | 0.0 | 4.8 | 0.00 | 0.00 | 0.00 | 39 | 1023.4 |
| 20260906043021 | 11 | 0.0 | 0.0 | 0.00 | 0.00 | 0.00 | 39 | 1023.3 | |
| 20260906042020 | 12 | 0.0 | 0.0 | 0.00 | 0.00 | 0.00 | 37 | 1023.2 | |
| 20260906041019 | 12 | 0.0 | 0.0 | 0.00 | 0.00 | 0.00 | 36 | 1023.2 | |
| 20260906040017 | 12 | 135 | 1.6 | 4.8 | 0.00 | 0.00 | 0.00 | 36 | 1023.0 |
| 20260906035016 | 13 | 0.0 | 0.0 | 0.00 | 0.00 | 0.00 | 35 | 1023.0 | |
| 20260906034015 | 13 | 0.0 | 0.0 | 0.00 | 0.00 | 0.00 | 32 | 1023.0 | |
| 20260906033020 | 14 | 0.0 | 0.0 | 0.00 | 0.00 | 0.00 | 31 | 1022.9 | |
| 20260906032025 | 15 | 225 | 1.6 | 3.2 | 0.00 | 0.00 | 0.00 | 31 | 1022.8 |
| 20260906031029 | 15 | 0.0 | 0.0 | 0.00 | 0.00 | 0.00 | 30 | 1022.7 | |
| 20260906030016 | 15 | 0.0 | 0.0 | 0.00 | 0.00 | 0.00 | 30 | 1022.6 | |
| 20260906025041 | 16 | 0.0 | 1.6 | 0.00 | 0.00 | 0.00 | 29 | 1022.4 | |
| 20260906024026 | 17 | 214 | 4.8 | 6.4 | 0.00 | 0.00 | 0.00 | 26 | 1022.4 |
| 20260906023032 | 17 | 215 | 6.4 | 6.4 | 0.00 | 0.00 | 0.00 | 26 | 1022.2 |
| 20260906022017 | 18 | 214 | 6.4 | 8.0 | 0.00 | 0.00 | 0.00 | 25 | 1022.2 |
| 20260906021022 | 19 | 220 | 8.0 | 8.0 | 0.00 | 0.00 | 0.00 | 24 | 1022.1 |
| 20260906020027 | 20 | 233 | 8.0 | 9.7 | 0.00 | 0.00 | 0.00 | 23 | 1022.0 |
| 20260906015032 | 21 | 230 | 8.0 | 9.7 | 0.00 | 0.00 | 0.00 | 23 | 1022.0 |
| 20260906014019 | 22 | 228 | 9.7 | 12.9 | 0.00 | 0.00 | 0.00 | 23 | 1022.1 |
| 20260906013024 | 23 | 227 | 11.3 | 16.1 | 0.00 | 0.00 | 0.00 | 21 | 1022.1 |
| 20260906012030 | 24 | 220 | 11.3 | 12.9 | 0.00 | 0.00 | 0.00 | 20 | 1022.1 |
| 20260906011015 | 25 | 224 | 11.3 | 14.5 | 0.00 | 0.00 | 0.00 | 20 | 1022.1 |
| 20260906010020 | 25 | 212 | 12.9 | 16.1 | 0.00 | 0.00 | 0.00 | 20 | 1022.1 |
| 20260906005025 | 25 | 210 | 11.3 | 14.5 | 0.00 | 0.00 | 0.00 | 20 | 1022.1 |
| 20260906004030 | 25 | 217 | 14.5 | 20.9 | 0.00 | 0.00 | 0.00 | 19 | 1022.1 |
| 20260906003016 | 25 | 205 | 14.5 | 17.7 | 0.00 | 0.00 | 0.00 | 19 | 1022.0 |
| 20260906002042 | 26 | 219 | 14.5 | 17.7 | 0.00 | 0.00 | 0.00 | 19 | 1022.0 |
| 20260906001027 | 26 | 217 | 14.5 | 17.7 | 0.00 | 0.00 | 0.00 | 19 | 1022.0 |
| 20260906000030 | 26 | 224 | 16.1 | 22.5 | 0.00 | 0.00 | 0.00 | 19 | 1021.8 |
| 20260905235017 | 26 | 211 | 19.3 | 24.1 | 0.00 | 0.00 | 0.00 | 19 | 1022.0 |
| 20260905234023 | 26 | 232 | 19.3 | 27.4 | 0.00 | 0.00 | 0.00 | 18 | 1021.8 |
| 20260905233027 | 26 | 208 | 17.7 | 25.7 | 0.00 | 0.00 | 0.00 | 18 | 1021.8 |
| 20260905232032 | 26 | 209 | 17.7 | 24.1 | 0.00 | 0.00 | 0.00 | 18 | 1021.8 |